sensor_id;sensor_type;location;lat;lon;timestamp;P1;durP1;ratioP1;P2;durP2;ratioP2
39612;SDS011;25303;48.896;13.342;2023-05-07T00:00:19;2.53;;;1.40;;
39612;SDS011;25303;48.896;13.342;2023-05-07T00:03:02;3.42;;;1.77;;
39612;SDS011;25303;48.896;13.342;2023-05-07T00:05:46;2.60;;;1.50;;
39612;SDS011;25303;48.896;13.342;2023-05-07T00:08:29;2.17;;;1.33;;
39612;SDS011;25303;48.896;13.342;2023-05-07T00:11:12;2.20;;;1.30;;
39612;SDS011;25303;48.896;13.342;2023-05-07T00:13:56;2.38;;;1.42;;
39612;SDS011;25303;48.896;13.342;2023-05-07T00:16:39;2.38;;;1.40;;
39612;SDS011;25303;48.896;13.342;2023-05-07T00:19:22;3.55;;;1.25;;
39612;SDS011;25303;48.896;13.342;2023-05-07T00:22:06;1.42;;;1.15;;
39612;SDS011;25303;48.896;13.342;2023-05-07T00:24:50;3.10;;;1.38;;
39612;SDS011;25303;48.896;13.342;2023-05-07T00:27:33;2.50;;;1.15;;
39612;SDS011;25303;48.896;13.342;2023-05-07T00:30:17;1.90;;;1.23;;
39612;SDS011;25303;48.896;13.342;2023-05-07T00:33:01;2.17;;;1.60;;
39612;SDS011;25303;48.896;13.342;2023-05-07T00:35:44;2.92;;;1.30;;
39612;SDS011;25303;48.896;13.342;2023-05-07T00:38:27;2.78;;;1.50;;
39612;SDS011;25303;48.896;13.342;2023-05-07T00:41:10;2.45;;;1.30;;
39612;SDS011;25303;48.896;13.342;2023-05-07T00:43:53;2.25;;;1.80;;
39612;SDS011;25303;48.896;13.342;2023-05-07T00:46:37;2.53;;;1.20;;
39612;SDS011;25303;48.896;13.342;2023-05-07T00:49:20;2.00;;;1.40;;
39612;SDS011;25303;48.896;13.342;2023-05-07T00:52:03;3.55;;;1.45;;
39612;SDS011;25303;48.896;13.342;2023-05-07T00:54:48;1.73;;;1.15;;
39612;SDS011;25303;48.896;13.342;2023-05-07T00:57:32;1.90;;;1.67;;
39612;SDS011;25303;48.896;13.342;2023-05-07T01:00:18;1.85;;;1.27;;
39612;SDS011;25303;48.896;13.342;2023-05-07T01:03:03;1.53;;;1.27;;
39612;SDS011;25303;48.896;13.342;2023-05-07T01:05:48;1.80;;;1.30;;
39612;SDS011;25303;48.896;13.342;2023-05-07T01:08:33;1.83;;;1.30;;
39612;SDS011;25303;48.896;13.342;2023-05-07T01:11:17;1.77;;;1.30;;
39612;SDS011;25303;48.896;13.342;2023-05-07T01:14:01;2.83;;;1.10;;
39612;SDS011;25303;48.896;13.342;2023-05-07T01:16:45;1.98;;;1.40;;
39612;SDS011;25303;48.896;13.342;2023-05-07T01:19:30;1.50;;;1.03;;
39612;SDS011;25303;48.896;13.342;2023-05-07T01:22:14;3.35;;;1.63;;
39612;SDS011;25303;48.896;13.342;2023-05-07T01:25:05;2.35;;;1.38;;
39612;SDS011;25303;48.896;13.342;2023-05-07T01:27:54;1.77;;;1.30;;
39612;SDS011;25303;48.896;13.342;2023-05-07T01:30:42;2.22;;;1.58;;
39612;SDS011;25303;48.896;13.342;2023-05-07T01:33:30;1.90;;;1.52;;
39612;SDS011;25303;48.896;13.342;2023-05-07T01:36:15;3.45;;;2.13;;
39612;SDS011;25303;48.896;13.342;2023-05-07T01:38:59;3.70;;;1.90;;
39612;SDS011;25303;48.896;13.342;2023-05-07T01:41:44;2.40;;;1.90;;
39612;SDS011;25303;48.896;13.342;2023-05-07T01:44:28;3.45;;;2.03;;
39612;SDS011;25303;48.896;13.342;2023-05-07T01:47:12;3.33;;;1.80;;
39612;SDS011;25303;48.896;13.342;2023-05-07T01:49:56;3.03;;;1.87;;
39612;SDS011;25303;48.896;13.342;2023-05-07T01:52:39;3.53;;;1.98;;
39612;SDS011;25303;48.896;13.342;2023-05-07T01:55:22;2.22;;;1.88;;
39612;SDS011;25303;48.896;13.342;2023-05-07T01:58:07;3.17;;;2.17;;
39612;SDS011;25303;48.896;13.342;2023-05-07T02:00:51;2.88;;;1.77;;
39612;SDS011;25303;48.896;13.342;2023-05-07T02:03:34;4.00;;;1.88;;
39612;SDS011;25303;48.896;13.342;2023-05-07T02:06:25;3.15;;;1.75;;
39612;SDS011;25303;48.896;13.342;2023-05-07T02:09:13;2.85;;;2.17;;
39612;SDS011;25303;48.896;13.342;2023-05-07T02:12:01;3.17;;;2.38;;
39612;SDS011;25303;48.896;13.342;2023-05-07T02:14:46;2.85;;;2.08;;
39612;SDS011;25303;48.896;13.342;2023-05-07T02:17:29;2.53;;;1.52;;
39612;SDS011;25303;48.896;13.342;2023-05-07T02:20:14;2.40;;;1.58;;
39612;SDS011;25303;48.896;13.342;2023-05-07T02:22:57;2.10;;;1.52;;
39612;SDS011;25303;48.896;13.342;2023-05-07T02:25:43;3.75;;;1.40;;
39612;SDS011;25303;48.896;13.342;2023-05-07T02:28:26;2.05;;;1.30;;
39612;SDS011;25303;48.896;13.342;2023-05-07T02:31:16;1.48;;;1.35;;
39612;SDS011;25303;48.896;13.342;2023-05-07T02:33:59;1.92;;;1.42;;
39612;SDS011;25303;48.896;13.342;2023-05-07T02:36:42;2.53;;;1.65;;
39612;SDS011;25303;48.896;13.342;2023-05-07T02:39:28;2.20;;;1.85;;
39612;SDS011;25303;48.896;13.342;2023-05-07T02:42:11;1.75;;;1.42;;
39612;SDS011;25303;48.896;13.342;2023-05-07T02:44:54;2.10;;;1.50;;
39612;SDS011;25303;48.896;13.342;2023-05-07T02:47:38;1.70;;;1.30;;
39612;SDS011;25303;48.896;13.342;2023-05-07T02:50:22;2.50;;;1.52;;
39612;SDS011;25303;48.896;13.342;2023-05-07T02:53:05;2.10;;;1.42;;
39612;SDS011;25303;48.896;13.342;2023-05-07T02:55:49;1.40;;;1.13;;
39612;SDS011;25303;48.896;13.342;2023-05-07T02:58:31;2.58;;;1.10;;
39612;SDS011;25303;48.896;13.342;2023-05-07T03:01:16;2.30;;;1.30;;
39612;SDS011;25303;48.896;13.342;2023-05-07T03:04:10;2.22;;;1.20;;
39612;SDS011;25303;48.896;13.342;2023-05-07T03:06:53;3.13;;;1.20;;
39612;SDS011;25303;48.896;13.342;2023-05-07T03:09:36;2.55;;;1.10;;
39612;SDS011;25303;48.896;13.342;2023-05-07T03:12:20;2.95;;;1.17;;
39612;SDS011;25303;48.896;13.342;2023-05-07T03:15:03;2.90;;;1.52;;
39612;SDS011;25303;48.896;13.342;2023-05-07T03:17:46;1.65;;;1.40;;
39612;SDS011;25303;48.896;13.342;2023-05-07T03:20:31;2.33;;;1.55;;
39612;SDS011;25303;48.896;13.342;2023-05-07T03:23:14;3.55;;;1.50;;
39612;SDS011;25303;48.896;13.342;2023-05-07T03:25:57;2.67;;;1.23;;
39612;SDS011;25303;48.896;13.342;2023-05-07T03:28:40;1.85;;;1.30;;
39612;SDS011;25303;48.896;13.342;2023-05-07T03:31:26;2.00;;;1.17;;
39612;SDS011;25303;48.896;13.342;2023-05-07T03:34:09;2.35;;;1.30;;
39612;SDS011;25303;48.896;13.342;2023-05-07T03:36:54;1.52;;;1.20;;
39612;SDS011;25303;48.896;13.342;2023-05-07T03:39:38;1.40;;;1.02;;
39612;SDS011;25303;48.896;13.342;2023-05-07T03:42:21;1.33;;;1.00;;
39612;SDS011;25303;48.896;13.342;2023-05-07T03:45:06;1.00;;;0.70;;
39612;SDS011;25303;48.896;13.342;2023-05-07T03:47:52;1.30;;;0.95;;
39612;SDS011;25303;48.896;13.342;2023-05-07T03:50:37;1.80;;;1.27;;
39612;SDS011;25303;48.896;13.342;2023-05-07T03:56:05;1.35;;;1.00;;
39612;SDS011;25303;48.896;13.342;2023-05-07T03:58:51;1.40;;;1.05;;
39612;SDS011;25303;48.896;13.342;2023-05-07T04:01:35;4.10;;;1.25;;
39612;SDS011;25303;48.896;13.342;2023-05-07T04:04:18;3.92;;;1.58;;
39612;SDS011;25303;48.896;13.342;2023-05-07T04:07:02;1.87;;;1.30;;
39612;SDS011;25303;48.896;13.342;2023-05-07T04:09:53;1.48;;;1.30;;
39612;SDS011;25303;48.896;13.342;2023-05-07T04:15:21;1.80;;;0.90;;
39612;SDS011;25303;48.896;13.342;2023-05-07T04:18:04;1.65;;;1.33;;
39612;SDS011;25303;48.896;13.342;2023-05-07T04:20:48;4.07;;;1.60;;
39612;SDS011;25303;48.896;13.342;2023-05-07T04:23:31;1.83;;;1.33;;
39612;SDS011;25303;48.896;13.342;2023-05-07T04:26:18;4.93;;;1.10;;
39612;SDS011;25303;48.896;13.342;2023-05-07T04:29:02;2.13;;;1.23;;
39612;SDS011;25303;48.896;13.342;2023-05-07T04:31:47;1.98;;;1.27;;
39612;SDS011;25303;48.896;13.342;2023-05-07T04:34:31;1.48;;;1.20;;
39612;SDS011;25303;48.896;13.342;2023-05-07T04:37:15;1.40;;;1.13;;
39612;SDS011;25303;48.896;13.342;2023-05-07T04:39:58;1.45;;;1.02;;
39612;SDS011;25303;48.896;13.342;2023-05-07T04:42:44;1.85;;;1.27;;
39612;SDS011;25303;48.896;13.342;2023-05-07T04:45:27;1.50;;;1.08;;
39612;SDS011;25303;48.896;13.342;2023-05-07T04:48:10;1.90;;;1.20;;
39612;SDS011;25303;48.896;13.342;2023-05-07T04:50:54;2.53;;;1.13;;
39612;SDS011;25303;48.896;13.342;2023-05-07T04:53:37;1.45;;;1.15;;
39612;SDS011;25303;48.896;13.342;2023-05-07T04:56:21;2.40;;;1.17;;
39612;SDS011;25303;48.896;13.342;2023-05-07T04:59:06;2.72;;;1.20;;
39612;SDS011;25303;48.896;13.342;2023-05-07T05:01:49;1.10;;;0.80;;
39612;SDS011;25303;48.896;13.342;2023-05-07T05:04:32;0.98;;;0.80;;
39612;SDS011;25303;48.896;13.342;2023-05-07T05:07:16;1.58;;;1.13;;
39612;SDS011;25303;48.896;13.342;2023-05-07T05:09:59;3.10;;;1.20;;
39612;SDS011;25303;48.896;13.342;2023-05-07T05:12:43;2.13;;;1.10;;
39612;SDS011;25303;48.896;13.342;2023-05-07T05:15:28;1.03;;;0.90;;
39612;SDS011;25303;48.896;13.342;2023-05-07T05:18:14;1.38;;;0.90;;
39612;SDS011;25303;48.896;13.342;2023-05-07T05:20:57;1.00;;;0.90;;
39612;SDS011;25303;48.896;13.342;2023-05-07T05:23:41;2.63;;;1.10;;
39612;SDS011;25303;48.896;13.342;2023-05-07T05:26:26;1.45;;;1.02;;
39612;SDS011;25303;48.896;13.342;2023-05-07T05:29:09;1.23;;;0.90;;
39612;SDS011;25303;48.896;13.342;2023-05-07T05:31:56;1.20;;;0.90;;
39612;SDS011;25303;48.896;13.342;2023-05-07T05:34:43;1.00;;;0.90;;
39612;SDS011;25303;48.896;13.342;2023-05-07T05:37:26;3.10;;;1.10;;
39612;SDS011;25303;48.896;13.342;2023-05-07T05:40:10;1.95;;;0.93;;
39612;SDS011;25303;48.896;13.342;2023-05-07T05:42:54;1.15;;;1.00;;
39612;SDS011;25303;48.896;13.342;2023-05-07T05:45:38;1.45;;;1.00;;
39612;SDS011;25303;48.896;13.342;2023-05-07T05:48:22;1.40;;;1.00;;
39612;SDS011;25303;48.896;13.342;2023-05-07T05:53:48;1.20;;;0.70;;
39612;SDS011;25303;48.896;13.342;2023-05-07T05:56:32;1.95;;;1.13;;
39612;SDS011;25303;48.896;13.342;2023-05-07T05:59:15;1.13;;;1.03;;
39612;SDS011;25303;48.896;13.342;2023-05-07T06:01:59;1.58;;;1.10;;
39612;SDS011;25303;48.896;13.342;2023-05-07T06:04:44;2.00;;;1.40;;
39612;SDS011;25303;48.896;13.342;2023-05-07T06:07:31;2.17;;;1.27;;
39612;SDS011;25303;48.896;13.342;2023-05-07T06:10:14;2.25;;;1.20;;
39612;SDS011;25303;48.896;13.342;2023-05-07T06:12:57;3.58;;;1.02;;
39612;SDS011;25303;48.896;13.342;2023-05-07T06:15:40;1.98;;;1.30;;
39612;SDS011;25303;48.896;13.342;2023-05-07T06:18:26;2.00;;;1.40;;
39612;SDS011;25303;48.896;13.342;2023-05-07T06:21:11;2.85;;;1.40;;
39612;SDS011;25303;48.896;13.342;2023-05-07T06:23:54;2.50;;;1.23;;
39612;SDS011;25303;48.896;13.342;2023-05-07T06:26:37;3.42;;;1.40;;
39612;SDS011;25303;48.896;13.342;2023-05-07T06:29:20;2.13;;;1.50;;
39612;SDS011;25303;48.896;13.342;2023-05-07T06:32:07;2.78;;;1.33;;
39612;SDS011;25303;48.896;13.342;2023-05-07T06:34:52;2.10;;;1.60;;
39612;SDS011;25303;48.896;13.342;2023-05-07T06:37:37;1.80;;;1.20;;
39612;SDS011;25303;48.896;13.342;2023-05-07T06:40:28;1.73;;;1.15;;
39612;SDS011;25303;48.896;13.342;2023-05-07T06:43:13;1.65;;;1.35;;
39612;SDS011;25303;48.896;13.342;2023-05-07T06:46:02;1.75;;;1.30;;
39612;SDS011;25303;48.896;13.342;2023-05-07T06:48:45;1.90;;;1.50;;
39612;SDS011;25303;48.896;13.342;2023-05-07T06:51:28;2.35;;;1.70;;
39612;SDS011;25303;48.896;13.342;2023-05-07T06:54:17;2.45;;;1.58;;
39612;SDS011;25303;48.896;13.342;2023-05-07T06:57:00;3.25;;;1.80;;
39612;SDS011;25303;48.896;13.342;2023-05-07T06:59:44;2.00;;;1.40;;
39612;SDS011;25303;48.896;13.342;2023-05-07T07:02:27;1.60;;;1.20;;
39612;SDS011;25303;48.896;13.342;2023-05-07T07:05:10;2.78;;;1.63;;
39612;SDS011;25303;48.896;13.342;2023-05-07T07:07:53;5.13;;;2.13;;
39612;SDS011;25303;48.896;13.342;2023-05-07T07:10:38;3.33;;;1.70;;
39612;SDS011;25303;48.896;13.342;2023-05-07T07:13:21;2.22;;;1.60;;
39612;SDS011;25303;48.896;13.342;2023-05-07T07:16:04;2.33;;;1.77;;
39612;SDS011;25303;48.896;13.342;2023-05-07T07:18:48;2.83;;;1.60;;
39612;SDS011;25303;48.896;13.342;2023-05-07T07:21:31;3.65;;;2.17;;
39612;SDS011;25303;48.896;13.342;2023-05-07T07:24:14;4.32;;;1.95;;
39612;SDS011;25303;48.896;13.342;2023-05-07T07:27:03;3.30;;;2.25;;
39612;SDS011;25303;48.896;13.342;2023-05-07T07:29:48;3.35;;;2.08;;
39612;SDS011;25303;48.896;13.342;2023-05-07T07:32:31;2.80;;;1.80;;
39612;SDS011;25303;48.896;13.342;2023-05-07T07:35:15;3.85;;;2.15;;
39612;SDS011;25303;48.896;13.342;2023-05-07T07:37:59;3.30;;;2.47;;
39612;SDS011;25303;48.896;13.342;2023-05-07T07:40:43;3.08;;;2.10;;
39612;SDS011;25303;48.896;13.342;2023-05-07T07:43:29;3.03;;;2.00;;
39612;SDS011;25303;48.896;13.342;2023-05-07T07:46:12;3.67;;;2.42;;
39612;SDS011;25303;48.896;13.342;2023-05-07T07:48:56;2.88;;;2.20;;
39612;SDS011;25303;48.896;13.342;2023-05-07T07:51:42;3.03;;;2.33;;
39612;SDS011;25303;48.896;13.342;2023-05-07T07:54:26;3.33;;;2.33;;
39612;SDS011;25303;48.896;13.342;2023-05-07T07:57:09;3.92;;;2.05;;
39612;SDS011;25303;48.896;13.342;2023-05-07T07:59:53;2.85;;;2.00;;
39612;SDS011;25303;48.896;13.342;2023-05-07T08:02:36;4.38;;;2.78;;
39612;SDS011;25303;48.896;13.342;2023-05-07T08:05:20;3.20;;;2.00;;
39612;SDS011;25303;48.896;13.342;2023-05-07T08:08:04;2.22;;;1.85;;
39612;SDS011;25303;48.896;13.342;2023-05-07T08:10:49;2.75;;;1.85;;
39612;SDS011;25303;48.896;13.342;2023-05-07T08:13:40;3.28;;;1.98;;
39612;SDS011;25303;48.896;13.342;2023-05-07T08:16:25;1.90;;;1.63;;
39612;SDS011;25303;48.896;13.342;2023-05-07T08:19:08;2.60;;;1.60;;
39612;SDS011;25303;48.896;13.342;2023-05-07T08:21:51;2.45;;;1.98;;
39612;SDS011;25303;48.896;13.342;2023-05-07T08:24:36;2.92;;;1.73;;
39612;SDS011;25303;48.896;13.342;2023-05-07T08:27:20;2.38;;;1.33;;
39612;SDS011;25303;48.896;13.342;2023-05-07T08:30:03;3.75;;;2.03;;
39612;SDS011;25303;48.896;13.342;2023-05-07T08:32:49;2.33;;;1.52;;
39612;SDS011;25303;48.896;13.342;2023-05-07T08:35:32;3.95;;;1.65;;
39612;SDS011;25303;48.896;13.342;2023-05-07T08:38:15;3.45;;;2.10;;
39612;SDS011;25303;48.896;13.342;2023-05-07T08:40:58;2.28;;;1.70;;
39612;SDS011;25303;48.896;13.342;2023-05-07T08:46:29;4.30;;;2.13;;
39612;SDS011;25303;48.896;13.342;2023-05-07T08:49:16;3.45;;;1.60;;
39612;SDS011;25303;48.896;13.342;2023-05-07T08:52:00;2.20;;;1.30;;
39612;SDS011;25303;48.896;13.342;2023-05-07T08:54:44;2.07;;;1.37;;
39612;SDS011;25303;48.896;13.342;2023-05-07T08:57:27;2.17;;;1.30;;
39612;SDS011;25303;48.896;13.342;2023-05-07T09:00:11;3.17;;;1.40;;
39612;SDS011;25303;48.896;13.342;2023-05-07T09:02:57;2.95;;;1.50;;
39612;SDS011;25303;48.896;13.342;2023-05-07T09:05:42;2.53;;;1.50;;
39612;SDS011;25303;48.896;13.342;2023-05-07T09:08:27;1.73;;;1.33;;
39612;SDS011;25303;48.896;13.342;2023-05-07T09:11:14;2.38;;;1.40;;
39612;SDS011;25303;48.896;13.342;2023-05-07T09:13:58;2.53;;;1.60;;
39612;SDS011;25303;48.896;13.342;2023-05-07T09:16:47;1.83;;;1.30;;
39612;SDS011;25303;48.896;13.342;2023-05-07T09:19:30;2.28;;;1.23;;
39612;SDS011;25303;48.896;13.342;2023-05-07T09:22:18;2.78;;;1.20;;
39612;SDS011;25303;48.896;13.342;2023-05-07T09:25:14;2.33;;;1.50;;
39612;SDS011;25303;48.896;13.342;2023-05-07T09:27:58;3.28;;;1.60;;
39612;SDS011;25303;48.896;13.342;2023-05-07T09:30:41;2.13;;;1.40;;
39612;SDS011;25303;48.896;13.342;2023-05-07T09:33:27;3.17;;;1.30;;
39612;SDS011;25303;48.896;13.342;2023-05-07T09:36:13;1.40;;;1.20;;
39612;SDS011;25303;48.896;13.342;2023-05-07T09:38:58;3.15;;;1.48;;
39612;SDS011;25303;48.896;13.342;2023-05-07T09:41:43;1.63;;;1.20;;
39612;SDS011;25303;48.896;13.342;2023-05-07T09:44:34;1.40;;;1.00;;
39612;SDS011;25303;48.896;13.342;2023-05-07T09:47:19;1.75;;;1.20;;
39612;SDS011;25303;48.896;13.342;2023-05-07T09:50:06;1.40;;;1.00;;
39612;SDS011;25303;48.896;13.342;2023-05-07T09:52:53;3.63;;;0.90;;
39612;SDS011;25303;48.896;13.342;2023-05-07T09:55:40;1.75;;;0.90;;
39612;SDS011;25303;48.896;13.342;2023-05-07T09:58:23;0.98;;;0.70;;
39612;SDS011;25303;48.896;13.342;2023-05-07T10:01:09;0.85;;;0.77;;
39612;SDS011;25303;48.896;13.342;2023-05-07T10:03:55;1.45;;;0.70;;
39612;SDS011;25303;48.896;13.342;2023-05-07T10:09:24;1.65;;;0.60;;
39612;SDS011;25303;48.896;13.342;2023-05-07T10:14:53;1.83;;;1.00;;
39612;SDS011;25303;48.896;13.342;2023-05-07T10:17:38;1.48;;;1.10;;
39612;SDS011;25303;48.896;13.342;2023-05-07T10:20:24;1.83;;;1.23;;
39612;SDS011;25303;48.896;13.342;2023-05-07T10:23:09;1.50;;;1.17;;
39612;SDS011;25303;48.896;13.342;2023-05-07T10:26:00;2.38;;;1.23;;
39612;SDS011;25303;48.896;13.342;2023-05-07T10:28:50;2.90;;;1.70;;
39612;SDS011;25303;48.896;13.342;2023-05-07T10:31:44;3.40;;;1.67;;
39612;SDS011;25303;48.896;13.342;2023-05-07T10:34:36;1.65;;;1.20;;
39612;SDS011;25303;48.896;13.342;2023-05-07T10:37:21;2.42;;;1.50;;
39612;SDS011;25303;48.896;13.342;2023-05-07T10:40:06;1.40;;;1.30;;
39612;SDS011;25303;48.896;13.342;2023-05-07T10:42:55;3.55;;;1.40;;
39612;SDS011;25303;48.896;13.342;2023-05-07T10:45:41;2.28;;;1.70;;
39612;SDS011;25303;48.896;13.342;2023-05-07T10:48:25;3.33;;;1.80;;
39612;SDS011;25303;48.896;13.342;2023-05-07T10:51:20;3.13;;;2.13;;
39612;SDS011;25303;48.896;13.342;2023-05-07T10:54:18;3.80;;;2.30;;
39612;SDS011;25303;48.896;13.342;2023-05-07T11:00:44;3.15;;;2.03;;
39612;SDS011;25303;48.896;13.342;2023-05-07T11:03:35;4.45;;;2.22;;
39612;SDS011;25303;48.896;13.342;2023-05-07T11:06:21;2.70;;;1.83;;
39612;SDS011;25303;48.896;13.342;2023-05-07T11:09:16;4.05;;;2.10;;
39612;SDS011;25303;48.896;13.342;2023-05-07T11:12:09;3.15;;;2.40;;
39612;SDS011;25303;48.896;13.342;2023-05-07T11:14:59;2.95;;;1.90;;
39612;SDS011;25303;48.896;13.342;2023-05-07T11:17:56;2.85;;;2.13;;
39612;SDS011;25303;48.896;13.342;2023-05-07T11:20:56;3.28;;;1.92;;
39612;SDS011;25303;48.896;13.342;2023-05-07T11:26:54;3.08;;;1.85;;
39612;SDS011;25303;48.896;13.342;2023-05-07T11:29:39;2.30;;;1.90;;
39612;SDS011;25303;48.896;13.342;2023-05-07T11:32:29;2.25;;;1.90;;
39612;SDS011;25303;48.896;13.342;2023-05-07T11:35:16;3.22;;;2.08;;
39612;SDS011;25303;48.896;13.342;2023-05-07T11:38:02;3.40;;;2.20;;
39612;SDS011;25303;48.896;13.342;2023-05-07T11:40:48;3.40;;;2.35;;
39612;SDS011;25303;48.896;13.342;2023-05-07T11:43:32;3.97;;;2.47;;
39612;SDS011;25303;48.896;13.342;2023-05-07T11:46:17;3.60;;;2.35;;
39612;SDS011;25303;48.896;13.342;2023-05-07T11:49:00;2.83;;;2.20;;
39612;SDS011;25303;48.896;13.342;2023-05-07T11:51:44;4.80;;;2.95;;
39612;SDS011;25303;48.896;13.342;2023-05-07T11:57:17;3.83;;;2.70;;
39612;SDS011;25303;48.896;13.342;2023-05-07T12:00:01;4.50;;;2.72;;
39612;SDS011;25303;48.896;13.342;2023-05-07T12:02:54;4.65;;;2.33;;
39612;SDS011;25303;48.896;13.342;2023-05-07T12:05:38;3.00;;;2.10;;
39612;SDS011;25303;48.896;13.342;2023-05-07T12:08:24;2.10;;;1.60;;
39612;SDS011;25303;48.896;13.342;2023-05-07T12:11:08;2.83;;;1.90;;
39612;SDS011;25303;48.896;13.342;2023-05-07T12:13:53;2.75;;;1.52;;
39612;SDS011;25303;48.896;13.342;2023-05-07T12:16:40;3.95;;;1.88;;
39612;SDS011;25303;48.896;13.342;2023-05-07T12:19:23;3.35;;;2.30;;
39612;SDS011;25303;48.896;13.342;2023-05-07T12:22:07;2.33;;;1.80;;
39612;SDS011;25303;48.896;13.342;2023-05-07T12:24:57;2.93;;;2.20;;
39612;SDS011;25303;48.896;13.342;2023-05-07T12:27:41;3.20;;;1.98;;
39612;SDS011;25303;48.896;13.342;2023-05-07T12:30:24;2.30;;;1.73;;
39612;SDS011;25303;48.896;13.342;2023-05-07T12:33:07;3.65;;;1.88;;
39612;SDS011;25303;48.896;13.342;2023-05-07T12:35:50;2.50;;;1.98;;
39612;SDS011;25303;48.896;13.342;2023-05-07T12:38:37;2.13;;;1.77;;
39612;SDS011;25303;48.896;13.342;2023-05-07T12:41:23;4.07;;;1.88;;
39612;SDS011;25303;48.896;13.342;2023-05-07T12:44:10;2.60;;;1.60;;
39612;SDS011;25303;48.896;13.342;2023-05-07T12:46:54;2.58;;;1.58;;
39612;SDS011;25303;48.896;13.342;2023-05-07T12:49:37;2.45;;;1.63;;
39612;SDS011;25303;48.896;13.342;2023-05-07T12:52:20;2.55;;;1.50;;
39612;SDS011;25303;48.896;13.342;2023-05-07T12:55:04;1.83;;;1.40;;
39612;SDS011;25303;48.896;13.342;2023-05-07T12:57:49;1.77;;;1.27;;
39612;SDS011;25303;48.896;13.342;2023-05-07T13:03:23;6.68;;;2.50;;
39612;SDS011;25303;48.896;13.342;2023-05-07T13:06:08;5.85;;;2.00;;
39612;SDS011;25303;48.896;13.342;2023-05-07T13:08:53;3.95;;;1.60;;
39612;SDS011;25303;48.896;13.342;2023-05-07T13:11:36;6.28;;;1.25;;
39612;SDS011;25303;48.896;13.342;2023-05-07T13:14:20;3.47;;;1.42;;
39612;SDS011;25303;48.896;13.342;2023-05-07T13:17:04;3.47;;;1.25;;
39612;SDS011;25303;48.896;13.342;2023-05-07T13:19:47;1.42;;;1.15;;
39612;SDS011;25303;48.896;13.342;2023-05-07T13:22:31;2.50;;;1.30;;
39612;SDS011;25303;48.896;13.342;2023-05-07T13:25:14;1.75;;;1.20;;
39612;SDS011;25303;48.896;13.342;2023-05-07T13:27:57;1.17;;;0.85;;
39612;SDS011;25303;48.896;13.342;2023-05-07T13:30:53;3.63;;;1.60;;
39612;SDS011;25303;48.896;13.342;2023-05-07T13:33:36;2.83;;;1.52;;
39612;SDS011;25303;48.896;13.342;2023-05-07T13:36:19;1.30;;;1.00;;
39612;SDS011;25303;48.896;13.342;2023-05-07T13:39:02;1.23;;;1.00;;
39612;SDS011;25303;48.896;13.342;2023-05-07T13:41:45;1.90;;;1.20;;
39612;SDS011;25303;48.896;13.342;2023-05-07T13:44:28;2.55;;;1.30;;
39612;SDS011;25303;48.896;13.342;2023-05-07T13:47:13;2.83;;;1.70;;
39612;SDS011;25303;48.896;13.342;2023-05-07T13:49:56;2.08;;;1.50;;
39612;SDS011;25303;48.896;13.342;2023-05-07T13:52:40;2.20;;;1.50;;
39612;SDS011;25303;48.896;13.342;2023-05-07T13:55:28;2.88;;;1.70;;
39612;SDS011;25303;48.896;13.342;2023-05-07T13:58:11;3.67;;;1.70;;
39612;SDS011;25303;48.896;13.342;2023-05-07T14:00:54;2.80;;;2.00;;
39612;SDS011;25303;48.896;13.342;2023-05-07T14:03:39;2.60;;;1.92;;
39612;SDS011;25303;48.896;13.342;2023-05-07T14:06:23;3.70;;;2.20;;
39612;SDS011;25303;48.896;13.342;2023-05-07T14:09:06;3.67;;;2.28;;
39612;SDS011;25303;48.896;13.342;2023-05-07T14:11:48;3.10;;;2.40;;
39612;SDS011;25303;48.896;13.342;2023-05-07T14:14:32;3.40;;;2.08;;
39612;SDS011;25303;48.896;13.342;2023-05-07T14:17:15;3.05;;;2.38;;
39612;SDS011;25303;48.896;13.342;2023-05-07T14:20:00;5.47;;;2.70;;
39612;SDS011;25303;48.896;13.342;2023-05-07T14:22:43;3.58;;;2.35;;
39612;SDS011;25303;48.896;13.342;2023-05-07T14:25:26;4.03;;;2.75;;
39612;SDS011;25303;48.896;13.342;2023-05-07T14:28:09;3.22;;;2.42;;
39612;SDS011;25303;48.896;13.342;2023-05-07T14:30:52;3.97;;;3.00;;
39612;SDS011;25303;48.896;13.342;2023-05-07T14:33:35;4.15;;;3.00;;
39612;SDS011;25303;48.896;13.342;2023-05-07T14:36:23;3.78;;;3.03;;
39612;SDS011;25303;48.896;13.342;2023-05-07T14:39:07;4.60;;;2.67;;
39612;SDS011;25303;48.896;13.342;2023-05-07T14:41:50;3.63;;;2.50;;
39612;SDS011;25303;48.896;13.342;2023-05-07T14:44:33;3.20;;;2.30;;
39612;SDS011;25303;48.896;13.342;2023-05-07T14:47:16;3.28;;;2.67;;
39612;SDS011;25303;48.896;13.342;2023-05-07T14:50:00;3.95;;;2.63;;
39612;SDS011;25303;48.896;13.342;2023-05-07T14:52:45;4.03;;;2.65;;
39612;SDS011;25303;48.896;13.342;2023-05-07T14:55:28;3.63;;;2.97;;
39612;SDS011;25303;48.896;13.342;2023-05-07T14:58:13;3.42;;;2.60;;
39612;SDS011;25303;48.896;13.342;2023-05-07T15:00:56;4.65;;;2.67;;
39612;SDS011;25303;48.896;13.342;2023-05-07T15:03:39;3.22;;;2.78;;
39612;SDS011;25303;48.896;13.342;2023-05-07T15:06:22;3.30;;;2.60;;
39612;SDS011;25303;48.896;13.342;2023-05-07T15:09:07;3.55;;;2.33;;
39612;SDS011;25303;48.896;13.342;2023-05-07T15:11:50;3.50;;;2.35;;
39612;SDS011;25303;48.896;13.342;2023-05-07T15:14:33;2.60;;;2.35;;
39612;SDS011;25303;48.896;13.342;2023-05-07T15:17:16;4.05;;;2.72;;
39612;SDS011;25303;48.896;13.342;2023-05-07T15:19:59;3.75;;;2.92;;
39612;SDS011;25303;48.896;13.342;2023-05-07T15:22:43;5.07;;;2.63;;
39612;SDS011;25303;48.896;13.342;2023-05-07T15:25:27;4.53;;;3.03;;
39612;SDS011;25303;48.896;13.342;2023-05-07T15:28:10;3.47;;;2.75;;
39612;SDS011;25303;48.896;13.342;2023-05-07T15:30:53;4.78;;;3.00;;
39612;SDS011;25303;48.896;13.342;2023-05-07T15:33:36;4.57;;;2.95;;
39612;SDS011;25303;48.896;13.342;2023-05-07T15:36:19;4.30;;;3.03;;
39612;SDS011;25303;48.896;13.342;2023-05-07T15:39:03;4.72;;;3.10;;
39612;SDS011;25303;48.896;13.342;2023-05-07T15:41:48;4.70;;;2.80;;
39612;SDS011;25303;48.896;13.342;2023-05-07T15:44:31;3.15;;;2.63;;
39612;SDS011;25303;48.896;13.342;2023-05-07T15:47:16;4.32;;;2.60;;
39612;SDS011;25303;48.896;13.342;2023-05-07T15:49:59;4.60;;;2.50;;
39612;SDS011;25303;48.896;13.342;2023-05-07T15:52:42;2.65;;;2.17;;
39612;SDS011;25303;48.896;13.342;2023-05-07T15:55:27;6.18;;;3.10;;
39612;SDS011;25303;48.896;13.342;2023-05-07T15:58:11;3.55;;;2.83;;
39612;SDS011;25303;48.896;13.342;2023-05-07T16:00:54;3.83;;;2.38;;
39612;SDS011;25303;48.896;13.342;2023-05-07T16:03:38;8.10;;;3.08;;
39612;SDS011;25303;48.896;13.342;2023-05-07T16:06:21;5.15;;;3.40;;
39612;SDS011;25303;48.896;13.342;2023-05-07T16:09:04;4.57;;;3.08;;
39612;SDS011;25303;48.896;13.342;2023-05-07T16:14:34;2.75;;;2.30;;
39612;SDS011;25303;48.896;13.342;2023-05-07T16:17:16;5.10;;;2.70;;
39612;SDS011;25303;48.896;13.342;2023-05-07T16:19:59;3.33;;;2.55;;
39612;SDS011;25303;48.896;13.342;2023-05-07T16:22:43;5.40;;;2.72;;
39612;SDS011;25303;48.896;13.342;2023-05-07T16:25:26;4.25;;;2.47;;
39612;SDS011;25303;48.896;13.342;2023-05-07T16:28:10;3.53;;;2.53;;
39612;SDS011;25303;48.896;13.342;2023-05-07T16:30:54;4.55;;;2.45;;
39612;SDS011;25303;48.896;13.342;2023-05-07T16:33:37;3.17;;;2.17;;
39612;SDS011;25303;48.896;13.342;2023-05-07T16:36:21;3.65;;;1.80;;
39612;SDS011;25303;48.896;13.342;2023-05-07T16:39:04;2.55;;;2.15;;
39612;SDS011;25303;48.896;13.342;2023-05-07T16:41:47;2.90;;;2.22;;
39612;SDS011;25303;48.896;13.342;2023-05-07T16:44:31;3.78;;;2.20;;
39612;SDS011;25303;48.896;13.342;2023-05-07T16:47:15;5.15;;;2.70;;